createdAt,value
2023-04-29T00:02:05.309Z,101718.30
2023-04-29T00:04:35.200Z,101715.52
2023-04-29T00:07:03.732Z,101712.07
2023-04-29T00:09:32.201Z,101713.25
2023-04-29T00:12:00.682Z,101716.42
2023-04-29T00:14:28.868Z,101719.96
2023-04-29T00:16:57.467Z,101718.16
2023-04-29T00:19:25.826Z,101714.89
2023-04-29T00:21:54.922Z,101713.29
2023-04-29T00:24:23.198Z,101714.79
2023-04-29T00:26:51.978Z,101713.56
2023-04-29T00:29:20.875Z,101713.71
2023-04-29T00:31:49.231Z,101717.13
2023-04-29T00:34:17.510Z,101714.27
2023-04-29T00:36:45.697Z,101712.15
2023-04-29T00:39:15.305Z,101707.27
2023-04-29T00:41:45.119Z,101708.55
2023-04-29T00:44:13.498Z,101707.13
2023-04-29T00:46:41.804Z,101708.19
2023-04-29T00:49:11.052Z,101707.25
2023-04-29T00:51:39.349Z,101705.36
2023-04-29T00:54:08.266Z,101706.34
2023-04-29T00:56:36.947Z,101708.03
2023-04-29T00:59:06.141Z,101709.45
2023-04-29T01:01:35.460Z,101711.87
2023-04-29T01:04:05.628Z,101716.23
2023-04-29T01:06:47.443Z,101713.73
2023-04-29T01:09:19.404Z,101714.58
2023-04-29T01:12:07.000Z,101713.84
2023-04-29T01:14:35.216Z,101714.27
2023-04-29T01:17:07.082Z,101712.48
2023-04-29T01:19:44.462Z,101713.80
2023-04-29T01:22:14.794Z,101712.52
2023-04-29T01:24:43.586Z,101716.94
2023-04-29T01:27:33.770Z,101718.34
2023-04-29T01:30:27.133Z,101719.29
2023-04-29T01:33:01.496Z,101717.03
2023-04-29T01:35:46.420Z,101715.80
2023-04-29T01:38:30.589Z,101714.17
2023-04-29T01:41:11.237Z,101714.48
2023-04-29T01:43:39.989Z,101712.50
2023-04-29T01:46:19.874Z,101716.55
2023-04-29T01:48:48.743Z,101722.11
2023-04-29T01:51:17.752Z,101718.10
2023-04-29T01:53:45.946Z,101719.28
2023-04-29T01:56:14.205Z,101720.92
2023-04-29T01:58:51.285Z,101715.13
2023-04-29T02:01:56.836Z,101718.20
2023-04-29T02:04:25.879Z,101720.63
2023-04-29T02:06:54.111Z,101717.25
2023-04-29T02:09:22.562Z,101718.95
2023-04-29T02:11:54.752Z,101715.33
2023-04-29T02:14:23.136Z,101713.95
2023-04-29T02:16:51.554Z,101713.36
2023-04-29T02:19:19.790Z,101716.98
2023-04-29T02:21:48.171Z,101715.77
2023-04-29T02:24:16.453Z,101717.04
2023-04-29T02:26:44.733Z,101718.74
2023-04-29T02:29:12.900Z,101722.92
2023-04-29T02:31:41.335Z,101723.83
2023-04-29T02:34:09.902Z,101726.05
2023-04-29T02:36:38.241Z,101728.39
2023-04-29T02:39:06.825Z,101727.02
2023-04-29T02:41:35.103Z,101732.52
2023-04-29T02:44:03.276Z,101729.73
2023-04-29T02:46:33.702Z,101726.59
2023-04-29T02:49:02.399Z,101727.14
2023-04-29T02:51:31.085Z,101724.35
2023-04-29T02:53:59.796Z,101726.55
2023-04-29T02:56:28.352Z,101724.95
2023-04-29T02:58:56.633Z,101728.21
2023-04-29T03:01:24.988Z,101728.91
2023-04-29T03:03:54.254Z,101728.98
2023-04-29T03:06:22.685Z,101733.83
2023-04-29T03:08:53.226Z,101734.54
2023-04-29T03:11:24.881Z,101735.59
2023-04-29T03:13:53.145Z,101735.30
2023-04-29T03:16:22.371Z,101738.76
2023-04-29T03:18:50.823Z,101738.28
2023-04-29T03:21:19.872Z,101738.83
2023-04-29T03:23:48.091Z,101742.80
2023-04-29T03:26:24.548Z,101743.38
2023-04-29T03:28:53.038Z,101744.46
2023-04-29T03:31:23.142Z,101745.34
2023-04-29T03:33:53.693Z,101748.23
2023-04-29T03:36:22.165Z,101746.70
2023-04-29T03:39:08.569Z,101749.11
2023-04-29T03:41:37.469Z,101750.21
2023-04-29T03:44:05.837Z,101747.25
2023-04-29T03:46:34.132Z,101748.23
2023-04-29T03:49:03.008Z,101745.77
2023-04-29T03:51:31.484Z,101746.31
2023-04-29T03:54:10.202Z,101744.30
2023-04-29T03:56:38.582Z,101746.49
2023-04-29T03:59:07.070Z,101744.02
2023-04-29T04:01:35.363Z,101745.17
2023-04-29T04:04:04.160Z,101745.27
2023-04-29T04:06:32.934Z,101745.02
2023-04-29T04:09:01.605Z,101748.16
2023-04-29T04:11:32.067Z,101744.58
2023-04-29T04:14:06.765Z,101745.17
2023-04-29T04:16:35.101Z,101743.26
2023-04-29T04:19:03.955Z,101746.61
2023-04-29T04:21:33.063Z,101748.97
2023-04-29T04:24:05.902Z,101751.64
2023-04-29T04:26:34.700Z,101751.05
2023-04-29T04:29:02.873Z,101753.83
2023-04-29T04:31:51.401Z,101747.51
2023-04-29T04:34:20.525Z,101745.44
2023-04-29T04:36:50.654Z,101746.87
2023-04-29T04:39:19.131Z,101745.80
2023-04-29T04:41:47.720Z,101743.08
2023-04-29T04:44:16.803Z,101745.13
2023-04-29T04:47:05.558Z,101741.21
2023-04-29T04:49:54.257Z,101737.47
2023-04-29T04:52:23.218Z,101735.86
2023-04-29T04:55:13.862Z,101730.38
2023-04-29T04:57:45.266Z,101724.41
2023-04-29T05:00:14.155Z,101724.53
2023-04-29T05:02:43.495Z,101728.45
2023-04-29T05:05:12.141Z,101727.95
2023-04-29T05:07:40.521Z,101726.59
2023-04-29T05:10:10.805Z,101728.36
2023-04-29T05:12:46.009Z,101726.46
2023-04-29T05:15:19.278Z,101725.05
2023-04-29T05:17:47.597Z,101721.88
2023-04-29T05:20:15.929Z,101720.21
2023-04-29T05:22:44.127Z,101723.75
2023-04-29T05:25:14.127Z,101719.58
2023-04-29T05:27:42.428Z,101717.84
2023-04-29T05:30:13.967Z,101717.45
2023-04-29T05:32:42.489Z,101716.34
2023-04-29T05:35:12.858Z,101712.77
2023-04-29T05:37:41.443Z,101713.73
2023-04-29T05:40:19.692Z,101706.14
2023-04-29T05:42:48.489Z,101706.38
2023-04-29T05:45:16.821Z,101700.24
2023-04-29T05:47:45.117Z,101695.65
2023-04-29T05:50:13.282Z,101697.71
2023-04-29T05:52:41.960Z,101699.06
2023-04-29T05:55:10.747Z,101696.98
2023-04-29T05:57:40.637Z,101697.52
2023-04-29T06:00:09.962Z,101695.69
2023-04-29T06:02:54.814Z,101694.32
2023-04-29T06:05:27.911Z,101695.73
2023-04-29T06:08:11.146Z,101690.29
2023-04-29T06:10:48.030Z,101691.77
2023-04-29T06:13:17.016Z,101689.73
2023-04-29T06:15:46.039Z,101682.67
2023-04-29T06:18:15.732Z,101678.09
2023-04-29T06:20:44.489Z,101670.73
2023-04-29T06:23:12.988Z,101671.97
2023-04-29T06:25:41.673Z,101672.20
2023-04-29T06:28:11.292Z,101673.43
2023-04-29T06:30:40.699Z,101673.92
2023-04-29T06:33:09.538Z,101674.70
2023-04-29T06:35:41.743Z,101672.59
2023-04-29T06:38:44.125Z,101670.97
2023-04-29T06:41:30.834Z,101666.26
2023-04-29T06:44:18.279Z,101664.65
2023-04-29T06:47:12.882Z,101663.61
2023-04-29T06:49:46.459Z,101663.88
2023-04-29T06:52:15.133Z,101669.48
2023-04-29T06:54:45.969Z,101662.04
2023-04-29T06:57:14.253Z,101660.14
2023-04-29T06:59:42.835Z,101663.59
2023-04-29T07:02:11.533Z,101661.85
2023-04-29T07:04:41.192Z,101661.56
2023-04-29T07:07:09.710Z,101656.21
2023-04-29T07:09:37.881Z,101656.23
2023-04-29T07:12:06.754Z,101655.54
2023-04-29T07:14:34.960Z,101656.80
2023-04-29T07:17:03.234Z,101659.14
2023-04-29T07:19:32.220Z,101651.33
2023-04-29T07:22:00.593Z,101651.58
2023-04-29T07:24:28.958Z,101654.67
2023-04-29T07:26:57.567Z,101651.04
2023-04-29T07:29:25.718Z,101645.92
2023-04-29T07:31:54.018Z,101645.16
2023-04-29T07:34:22.703Z,101645.61
2023-04-29T07:36:50.873Z,101649.83
2023-04-29T07:39:19.580Z,101649.66
2023-04-29T07:41:51.274Z,101645.06
2023-04-29T07:44:19.416Z,101647.41
2023-04-29T07:46:48.460Z,101637.95
2023-04-29T07:49:16.988Z,101638.04
2023-04-29T07:51:45.213Z,101628.95
2023-04-29T07:54:13.338Z,101626.89
2023-04-29T07:56:41.515Z,101620.19
2023-04-29T07:59:09.662Z,101622.04
2023-04-29T08:01:38.761Z,101624.00
2023-04-29T08:04:08.147Z,101625.62
2023-04-29T08:06:44.833Z,101615.61
2023-04-29T08:09:13.720Z,101615.84
2023-04-29T08:11:44.046Z,101616.58
2023-04-29T08:14:14.381Z,101617.20
2023-04-29T08:16:42.631Z,101614.74
2023-04-29T08:19:11.640Z,101618.12
2023-04-29T08:21:39.919Z,101619.78
2023-04-29T08:24:08.513Z,101613.84
2023-04-29T08:26:36.651Z,101610.85
2023-04-29T08:29:04.746Z,101611.07
2023-04-29T08:31:33.363Z,101610.17
2023-04-29T08:34:01.928Z,101613.58
2023-04-29T08:36:30.096Z,101611.19
2023-04-29T08:38:58.370Z,101611.53
2023-04-29T08:41:27.051Z,101610.34
2023-04-29T08:43:55.207Z,101605.64
2023-04-29T08:46:25.788Z,101605.31
2023-04-29T08:48:54.285Z,101605.96
2023-04-29T08:51:22.465Z,101602.71
2023-04-29T08:53:51.245Z,101598.60
2023-04-29T08:56:20.930Z,101596.56
2023-04-29T08:58:54.996Z,101592.83
2023-04-29T09:01:23.389Z,101586.13
2023-04-29T09:04:03.882Z,101589.88
2023-04-29T09:06:35.110Z,101588.72
2023-04-29T09:09:03.941Z,101583.80
2023-04-29T09:11:32.082Z,101586.43
2023-04-29T09:14:01.582Z,101587.27
2023-04-29T09:16:29.861Z,101579.93
2023-04-29T09:18:58.481Z,101578.55
2023-04-29T09:21:32.416Z,101574.34
2023-04-29T09:24:01.868Z,101572.81
2023-04-29T09:26:44.597Z,101569.17
2023-04-29T09:29:18.643Z,101563.40
2023-04-29T09:31:47.314Z,101564.06
2023-04-29T09:34:15.449Z,101559.34
2023-04-29T09:36:48.785Z,101551.02
2023-04-29T09:39:17.940Z,101543.83
2023-04-29T09:41:55.195Z,101539.97
2023-04-29T09:44:25.375Z,101544.38
2023-04-29T09:46:57.810Z,101540.20
2023-04-29T09:49:27.334Z,101541.50
2023-04-29T09:51:59.586Z,101531.41
2023-04-29T09:54:29.403Z,101524.85
2023-04-29T09:56:59.163Z,101531.09
2023-04-29T09:59:27.425Z,101529.02
2023-04-29T10:01:57.626Z,101530.06
2023-04-29T10:04:28.107Z,101529.33
2023-04-29T10:06:56.676Z,101528.48
2023-04-29T10:09:25.010Z,101523.21
2023-04-29T10:11:53.676Z,101526.17
2023-04-29T10:14:22.792Z,101525.53
2023-04-29T10:17:00.446Z,101517.71
2023-04-29T10:19:38.161Z,101517.09
2023-04-29T10:22:09.423Z,101519.29
2023-04-29T10:24:38.136Z,101518.73
2023-04-29T10:27:12.393Z,101513.92
2023-04-29T10:29:41.830Z,101511.69
2023-04-29T10:32:11.032Z,101503.00
2023-04-29T10:34:42.479Z,101497.52
2023-04-29T10:37:11.676Z,101496.72
2023-04-29T10:39:43.333Z,101499.86
2023-04-29T10:42:26.518Z,101503.11
2023-04-29T10:45:19.751Z,101504.54
2023-04-29T10:48:08.696Z,101504.06
2023-04-29T10:50:43.866Z,101498.33
2023-04-29T10:53:11.939Z,101491.11
2023-04-29T10:55:40.216Z,101492.07
2023-04-29T10:58:44.998Z,101489.98
2023-04-29T11:01:17.623Z,101485.98
2023-04-29T11:03:46.654Z,101487.41
2023-04-29T11:06:15.797Z,101481.41
2023-04-29T11:08:45.073Z,101475.59
2023-04-29T11:11:16.048Z,101476.61
2023-04-29T11:13:46.236Z,101470.52
2023-04-29T11:16:14.610Z,101473.09
2023-04-29T11:19:07.074Z,101470.27
2023-04-29T11:21:36.766Z,101471.83
2023-04-29T11:24:06.588Z,101463.20
2023-04-29T11:26:35.739Z,101455.88
2023-04-29T11:29:05.564Z,101450.61
2023-04-29T11:31:33.934Z,101442.30
2023-04-29T11:34:04.402Z,101448.38
2023-04-29T11:36:33.461Z,101449.08
2023-04-29T11:39:03.866Z,101450.19
2023-04-29T11:41:32.249Z,101442.73
2023-04-29T11:44:01.400Z,101437.49
2023-04-29T11:46:34.243Z,101434.24
2023-04-29T11:49:02.532Z,101432.91
2023-04-29T11:51:30.633Z,101424.13
2023-04-29T11:53:58.747Z,101421.22
2023-04-29T11:56:27.130Z,101423.03
2023-04-29T11:58:56.977Z,101416.23
2023-04-29T12:01:25.972Z,101420.21
2023-04-29T12:03:59.386Z,101410.94
2023-04-29T12:06:30.028Z,101407.26
2023-04-29T12:09:01.853Z,101405.86
2023-04-29T12:11:30.764Z,101406.50
2023-04-29T12:14:01.777Z,101402.31
2023-04-29T12:16:30.788Z,101402.70
2023-04-29T12:18:59.759Z,101402.77
2023-04-29T12:21:27.863Z,101400.02
2023-04-29T12:23:59.757Z,101405.68
2023-04-29T12:26:29.030Z,101400.57
2023-04-29T12:29:00.274Z,101400.48
2023-04-29T12:31:37.139Z,101398.85
2023-04-29T12:34:08.268Z,101393.52
2023-04-29T12:36:38.047Z,101389.42
2023-04-29T12:39:09.703Z,101389.15
2023-04-29T12:41:41.534Z,101388.06
2023-04-29T12:44:12.806Z,101386.35
2023-04-29T12:46:41.957Z,101387.82
2023-04-29T12:49:10.240Z,101382.40
2023-04-29T12:51:38.399Z,101378.25
2023-04-29T12:54:07.479Z,101380.27
2023-04-29T12:56:35.888Z,101381.44
2023-04-29T12:59:10.311Z,101374.17
2023-04-29T13:01:39.232Z,101370.44
2023-04-29T13:04:09.346Z,101377.76
2023-04-29T13:06:42.135Z,101374.90
2023-04-29T13:09:17.895Z,101371.51
2023-04-29T13:11:47.483Z,101371.52
2023-04-29T13:14:16.514Z,101369.30
2023-04-29T13:16:45.515Z,101365.73
2023-04-29T13:19:32.221Z,101367.70
2023-04-29T13:22:01.983Z,101365.88
2023-04-29T13:24:30.457Z,101368.19
2023-04-29T13:26:58.626Z,101361.68
2023-04-29T13:29:27.120Z,101367.24
2023-04-29T13:31:55.441Z,101362.04
2023-04-29T13:34:23.865Z,101358.23
2023-04-29T13:36:52.245Z,101361.08
2023-04-29T13:39:23.028Z,101361.91
2023-04-29T13:41:51.767Z,101357.16
2023-04-29T13:44:29.596Z,101360.08
2023-04-29T13:47:01.890Z,101355.20
2023-04-29T13:50:03.431Z,101357.35
2023-04-29T13:55:12.371Z,101354.84
2023-04-29T14:00:37.413Z,101360.02
2023-04-29T14:05:32.611Z,101361.14
2023-04-29T14:08:01.130Z,101357.03
2023-04-29T14:10:29.763Z,101356.93
2023-04-29T14:12:58.495Z,101355.53
2023-04-29T14:15:26.944Z,101354.83
2023-04-29T14:17:55.420Z,101352.48
2023-04-29T14:20:23.600Z,101354.90
2023-04-29T14:22:51.852Z,101349.95
2023-04-29T14:25:20.130Z,101346.31
2023-04-29T14:27:49.542Z,101347.59
2023-04-29T14:30:17.720Z,101346.06
2023-04-29T14:32:46.720Z,101342.73
2023-04-29T14:35:15.390Z,101339.77
2023-04-29T14:37:43.664Z,101341.66
2023-04-29T14:40:12.461Z,101341.29
2023-04-29T14:42:40.633Z,101335.52
2023-04-29T14:45:09.637Z,101336.11
2023-04-29T14:47:37.922Z,101339.83
2023-04-29T14:50:07.445Z,101340.45
2023-04-29T14:52:35.675Z,101345.91
2023-04-29T14:55:04.776Z,101346.23
2023-04-29T14:57:33.052Z,101344.64
2023-04-29T15:00:01.629Z,101343.20
2023-04-29T15:02:29.844Z,101344.33
2023-04-29T15:04:57.945Z,101348.16
2023-04-29T15:07:26.149Z,101345.42
2023-04-29T15:09:54.429Z,101342.50
2023-04-29T15:12:23.124Z,101344.36
2023-04-29T15:14:52.962Z,101342.19
2023-04-29T15:17:21.680Z,101340.24
2023-04-29T15:19:50.003Z,101332.64
2023-04-29T15:22:18.373Z,101335.86
2023-04-29T15:27:17.593Z,101344.23
2023-04-29T15:29:45.773Z,101344.86
2023-04-29T15:32:14.583Z,101341.23
2023-04-29T15:34:42.670Z,101341.02
2023-04-29T15:37:11.141Z,101341.50
2023-04-29T15:39:39.279Z,101349.24
2023-04-29T15:42:07.709Z,101346.38
2023-04-29T15:44:35.933Z,101345.38
2023-04-29T15:47:04.119Z,101343.29
2023-04-29T15:49:32.387Z,101340.32
2023-04-29T15:52:01.284Z,101343.02
2023-04-29T15:54:29.370Z,101345.01
2023-04-29T15:56:57.528Z,101351.84
2023-04-29T15:59:27.231Z,101353.05
2023-04-29T16:01:57.119Z,101349.00
2023-04-29T16:04:25.554Z,101354.68
2023-04-29T16:06:54.108Z,101360.31
2023-04-29T16:09:22.392Z,101355.39
2023-04-29T16:11:53.330Z,101359.68
2023-04-29T16:14:21.507Z,101360.02
2023-04-29T16:16:50.209Z,101359.77
2023-04-29T16:19:18.362Z,101362.77
2023-04-29T16:21:47.251Z,101365.36
2023-04-29T16:24:15.641Z,101367.17
2023-04-29T16:26:44.012Z,101367.98
2023-04-29T16:29:13.641Z,101369.20
2023-04-29T16:31:41.840Z,101374.48
2023-04-29T16:34:10.885Z,101376.52
2023-04-29T16:36:39.166Z,101377.08
2023-04-29T16:39:07.543Z,101376.84
2023-04-29T16:41:35.711Z,101377.13
2023-04-29T16:44:04.009Z,101378.74
2023-04-29T16:46:32.922Z,101383.92
2023-04-29T16:49:01.367Z,101382.66
2023-04-29T16:51:29.556Z,101382.92
2023-04-29T16:53:58.024Z,101385.55
2023-04-29T16:56:26.475Z,101379.88
2023-04-29T16:59:13.020Z,101376.05
2023-04-29T17:01:41.312Z,101382.23
2023-04-29T17:04:09.746Z,101380.73
2023-04-29T17:06:38.637Z,101379.53
2023-04-29T17:09:07.683Z,101383.61
2023-04-29T17:11:35.826Z,101388.06
2023-04-29T17:14:04.208Z,101389.33
2023-04-29T17:16:33.283Z,101387.98
2023-04-29T17:19:01.678Z,101389.38
2023-04-29T17:21:31.190Z,101391.99
2023-04-29T17:23:59.668Z,101397.23
2023-04-29T17:26:28.054Z,101397.89
2023-04-29T17:28:56.174Z,101396.69
2023-04-29T17:31:25.841Z,101394.24
2023-04-29T17:34:05.583Z,101398.45
2023-04-29T17:36:33.767Z,101400.92
2023-04-29T17:39:01.919Z,101403.73
2023-04-29T17:41:30.035Z,101405.47
2023-04-29T17:43:58.168Z,101406.48
2023-04-29T17:46:26.595Z,101409.24
2023-04-29T17:48:54.962Z,101410.73
2023-04-29T17:51:23.213Z,101410.52
2023-04-29T17:53:52.659Z,101414.11
2023-04-29T17:56:23.474Z,101417.55
2023-04-29T17:58:52.433Z,101418.34
2023-04-29T18:01:20.698Z,101422.44
2023-04-29T18:03:51.130Z,101424.27
2023-04-29T18:06:19.474Z,101424.48
2023-04-29T18:08:47.908Z,101425.77
2023-04-29T18:11:16.179Z,101429.14
2023-04-29T18:13:44.351Z,101432.13
2023-04-29T18:16:12.530Z,101434.39
2023-04-29T18:18:41.116Z,101435.65
2023-04-29T18:21:09.275Z,101437.92
2023-04-29T18:23:40.028Z,101442.08
2023-04-29T18:26:08.804Z,101448.35
2023-04-29T18:28:37.180Z,101442.62
2023-04-29T18:31:05.999Z,101445.55
2023-04-29T18:33:36.391Z,101446.59
2023-04-29T18:36:05.184Z,101446.75
2023-04-29T18:38:33.498Z,101446.73
2023-04-29T18:41:06.346Z,101446.70
2023-04-29T18:43:35.249Z,101444.06
2023-04-29T18:46:03.432Z,101448.89
2023-04-29T18:48:31.684Z,101450.42
2023-04-29T18:51:04.052Z,101447.27
2023-04-29T18:53:32.228Z,101442.73
2023-04-29T18:56:02.164Z,101443.07
2023-04-29T18:58:30.725Z,101444.60
2023-04-29T19:01:00.352Z,101441.42
2023-04-29T19:03:29.029Z,101446.25
2023-04-29T19:05:58.255Z,101443.61
2023-04-29T19:08:26.547Z,101444.95
2023-04-29T19:10:54.884Z,101445.45
2023-04-29T19:13:24.582Z,101442.83
2023-04-29T19:15:55.127Z,101443.17
2023-04-29T19:18:24.116Z,101440.05
2023-04-29T19:20:53.816Z,101439.35
2023-04-29T19:23:22.423Z,101439.69
2023-04-29T19:25:50.537Z,101436.20
2023-04-29T19:28:19.475Z,101433.41
2023-04-29T19:30:49.175Z,101434.98
2023-04-29T19:33:17.702Z,101429.80
2023-04-29T19:35:46.148Z,101425.82
2023-04-29T19:38:14.314Z,101425.46
2023-04-29T19:40:44.432Z,101426.48
2023-04-29T19:43:13.743Z,101427.67
2023-04-29T19:45:42.012Z,101427.67
2023-04-29T19:48:11.475Z,101419.17
2023-04-29T19:50:40.222Z,101418.98
2023-04-29T19:53:08.383Z,101412.39
2023-04-29T19:55:36.775Z,101412.20
2023-04-29T19:58:06.676Z,101413.60
2023-04-29T20:00:34.880Z,101408.21
2023-04-29T20:03:03.785Z,101408.55
2023-04-29T20:05:32.436Z,101408.89
2023-04-29T20:08:02.340Z,101405.23
2023-04-29T20:10:31.440Z,101402.60
2023-04-29T20:12:59.829Z,101402.61
2023-04-29T20:15:28.093Z,101403.50
2023-04-29T20:17:56.355Z,101400.39
2023-04-29T20:20:26.249Z,101396.23
2023-04-29T20:22:58.212Z,101388.23
2023-04-29T20:25:27.542Z,101392.04
2023-04-29T20:27:56.910Z,101391.16
2023-04-29T20:30:26.994Z,101391.84
2023-04-29T20:32:55.287Z,101389.77
2023-04-29T20:35:23.618Z,101391.13
2023-04-29T20:37:52.097Z,101390.61
2023-04-29T20:40:20.879Z,101389.55
2023-04-29T20:42:49.162Z,101387.45
2023-04-29T20:45:17.446Z,101385.19
2023-04-29T20:47:45.894Z,101384.99
2023-04-29T20:50:14.622Z,101381.67
2023-04-29T20:52:43.503Z,101382.52
2023-04-29T20:55:12.290Z,101380.66
2023-04-29T20:57:40.465Z,101377.19
2023-04-29T21:00:10.588Z,101379.24
2023-04-29T21:02:38.776Z,101379.42
2023-04-29T21:05:09.998Z,101374.53
2023-04-29T21:07:38.622Z,101375.38
2023-04-29T21:10:07.415Z,101375.69
2023-04-29T21:12:36.169Z,101373.20
2023-04-29T21:15:06.291Z,101372.27
2023-04-29T21:17:34.601Z,101375.31
2023-04-29T21:20:02.855Z,101375.42
2023-04-29T21:22:31.018Z,101370.68
2023-04-29T21:24:59.170Z,101369.45
2023-04-29T21:27:27.402Z,101366.52
2023-04-29T21:29:55.964Z,101367.52
2023-04-29T21:32:24.685Z,101366.58
2023-04-29T21:34:52.930Z,101371.00
2023-04-29T21:37:21.285Z,101368.38
2023-04-29T21:39:49.567Z,101365.91
2023-04-29T21:42:21.447Z,101362.44
2023-04-29T21:44:49.610Z,101360.83
2023-04-29T21:47:17.872Z,101359.36
2023-04-29T21:49:46.269Z,101360.70
2023-04-29T21:52:15.778Z,101357.00
2023-04-29T21:54:44.545Z,101356.46
2023-04-29T21:57:12.651Z,101357.36
2023-04-29T21:59:41.092Z,101355.89
2023-04-29T22:02:22.439Z,101354.91
2023-04-29T22:04:51.781Z,101356.49
2023-04-29T22:07:21.193Z,101354.23
2023-04-29T22:09:52.375Z,101351.29
2023-04-29T22:12:21.946Z,101345.40
2023-04-29T22:14:50.113Z,101342.98
2023-04-29T22:17:18.392Z,101337.61
2023-04-29T22:19:46.585Z,101338.80
2023-04-29T22:22:14.731Z,101338.77
2023-04-29T22:24:43.117Z,101333.70
2023-04-29T22:27:11.299Z,101331.08
2023-04-29T22:29:39.875Z,101332.41
2023-04-29T22:32:08.507Z,101335.64
2023-04-29T22:34:37.147Z,101334.91
2023-04-29T22:37:05.420Z,101331.75
2023-04-29T22:39:35.233Z,101326.86
2023-04-29T22:42:04.841Z,101327.48
2023-04-29T22:44:33.122Z,101322.73
2023-04-29T22:47:02.120Z,101318.90
2023-04-29T22:49:30.299Z,101315.80
2023-04-29T22:51:58.587Z,101310.09
2023-04-29T22:54:26.734Z,101308.17
2023-04-29T22:56:58.393Z,101302.62
2023-04-29T22:59:26.574Z,101297.56
2023-04-29T23:01:56.064Z,101292.88
2023-04-29T23:04:25.191Z,101294.09
2023-04-29T23:06:53.908Z,101292.52
2023-04-29T23:09:22.129Z,101291.63
2023-04-29T23:11:50.324Z,101293.86
2023-04-29T23:14:21.266Z,101292.99
2023-04-29T23:16:49.726Z,101292.13
2023-04-29T23:19:18.014Z,101295.23
2023-04-29T23:21:46.280Z,101291.42
2023-04-29T23:24:14.862Z,101290.05
2023-04-29T23:26:43.243Z,101288.49
2023-04-29T23:29:11.517Z,101286.95
2023-04-29T23:31:39.918Z,101286.77
2023-04-29T23:34:08.478Z,101281.58
2023-04-29T23:36:36.754Z,101278.58
2023-04-29T23:39:05.199Z,101278.68
2023-04-29T23:41:33.821Z,101276.89
2023-04-29T23:44:02.626Z,101279.55
2023-04-29T23:46:31.169Z,101278.92
2023-04-29T23:48:59.501Z,101277.77
2023-04-29T23:51:27.669Z,101275.22
2023-04-29T23:53:55.798Z,101273.88
2023-04-29T23:56:25.940Z,101274.26
2023-04-29T23:58:54.118Z,101275.84
